sensor_id;sensor_type;location;lat;lon;timestamp;temperature;humidity
12119;DHT22;6123;48.864;9.200;2023-06-26T09:40:46;29.80;84.80
12119;DHT22;6123;48.864;9.200;2023-06-26T09:43:13;29.60;81.60
12119;DHT22;6123;48.864;9.200;2023-06-26T09:45:40;29.40;81.30
12119;DHT22;6123;48.864;9.200;2023-06-26T09:48:06;29.60;81.30
12119;DHT22;6123;48.864;9.200;2023-06-26T09:50:36;29.80;79.80
12119;DHT22;6123;48.864;9.200;2023-06-26T09:53:13;29.10;81.40
12119;DHT22;6123;48.864;9.200;2023-06-26T09:55:39;29.20;83.30
12119;DHT22;6123;48.864;9.200;2023-06-26T09:58:12;28.90;83.50
12119;DHT22;6123;48.864;9.200;2023-06-26T10:00:44;28.90;83.60
12119;DHT22;6123;48.864;9.200;2023-06-26T10:03:12;28.80;84.60
12119;DHT22;6123;48.864;9.200;2023-06-26T10:05:39;29.00;85.10
12119;DHT22;6123;48.864;9.200;2023-06-26T10:08:05;29.00;86.30
12119;DHT22;6123;48.864;9.200;2023-06-26T10:10:34;29.30;86.30
12119;DHT22;6123;48.864;9.200;2023-06-26T10:13:07;29.40;86.50
12119;DHT22;6123;48.864;9.200;2023-06-26T10:15:33;28.60;85.60
12119;DHT22;6123;48.864;9.200;2023-06-26T10:18:06;28.40;88.10
12119;DHT22;6123;48.864;9.200;2023-06-26T10:20:32;28.50;87.80
12119;DHT22;6123;48.864;9.200;2023-06-26T10:23:01;28.90;88.40
12119;DHT22;6123;48.864;9.200;2023-06-26T10:25:29;28.90;89.60
12119;DHT22;6123;48.864;9.200;2023-06-26T10:27:58;28.50;90.20
12119;DHT22;6123;48.864;9.200;2023-06-26T10:30:28;28.10;90.50
12119;DHT22;6123;48.864;9.200;2023-06-26T10:32:55;28.10;91.20
12119;DHT22;6123;48.864;9.200;2023-06-26T10:35:27;28.40;91.00
12119;DHT22;6123;48.864;9.200;2023-06-26T10:38:00;28.20;90.70
12119;DHT22;6123;48.864;9.200;2023-06-26T10:40:28;28.40;89.90
12119;DHT22;6123;48.864;9.200;2023-06-26T10:43:07;28.80;90.20
12119;DHT22;6123;48.864;9.200;2023-06-26T10:45:37;28.70;88.30
12119;DHT22;6123;48.864;9.200;2023-06-26T10:48:07;28.50;89.50
12119;DHT22;6123;48.864;9.200;2023-06-26T10:50:33;28.40;90.10
12119;DHT22;6123;48.864;9.200;2023-06-26T11:03:50;28.70;88.00
12119;DHT22;6123;48.864;9.200;2023-06-26T11:06:27;29.00;90.20
12119;DHT22;6123;48.864;9.200;2023-06-26T11:08:54;28.30;90.80
12119;DHT22;6123;48.864;9.200;2023-06-26T11:14:19;28.80;91.80
12119;DHT22;6123;48.864;9.200;2023-06-26T11:16:45;28.10;90.70
12119;DHT22;6123;48.864;9.200;2023-06-26T11:19:12;29.00;91.50
12119;DHT22;6123;48.864;9.200;2023-06-26T11:21:38;29.00;91.80
12119;DHT22;6123;48.864;9.200;2023-06-26T11:24:06;29.10;91.00
12119;DHT22;6123;48.864;9.200;2023-06-26T11:26:38;29.20;91.40
12119;DHT22;6123;48.864;9.200;2023-06-26T11:29:04;29.00;90.40
12119;DHT22;6123;48.864;9.200;2023-06-26T11:31:35;29.00;91.10
12119;DHT22;6123;48.864;9.200;2023-06-26T11:34:06;28.60;92.60
12119;DHT22;6123;48.864;9.200;2023-06-26T11:36:39;28.60;93.30
12119;DHT22;6123;48.864;9.200;2023-06-26T11:41:34;29.00;91.80
12119;DHT22;6123;48.864;9.200;2023-06-26T11:44:08;28.70;92.30
12119;DHT22;6123;48.864;9.200;2023-06-26T11:46:37;28.70;93.00
12119;DHT22;6123;48.864;9.200;2023-06-26T11:49:06;28.30;93.50
12119;DHT22;6123;48.864;9.200;2023-06-26T11:54:00;28.80;94.50
12119;DHT22;6123;48.864;9.200;2023-06-26T11:58:59;28.70;95.70
12119;DHT22;6123;48.864;9.200;2023-06-26T12:01:36;28.00;97.70
12119;DHT22;6123;48.864;9.200;2023-06-26T12:04:11;28.40;97.00
12119;DHT22;6123;48.864;9.200;2023-06-26T12:06:39;28.40;97.10
12119;DHT22;6123;48.864;9.200;2023-06-26T12:09:10;28.30;98.20
12119;DHT22;6123;48.864;9.200;2023-06-26T12:11:38;28.60;97.70
12119;DHT22;6123;48.864;9.200;2023-06-26T12:14:05;28.50;97.80
12119;DHT22;6123;48.864;9.200;2023-06-26T12:16:33;28.60;95.70
12119;DHT22;6123;48.864;9.200;2023-06-26T12:19:06;28.80;94.80
12119;DHT22;6123;48.864;9.200;2023-06-26T12:23:39;28.40;97.00
12119;DHT22;6123;48.864;9.200;2023-06-26T12:26:18;28.90;95.80
12119;DHT22;6123;48.864;9.200;2023-06-26T12:28:44;28.60;97.30
12119;DHT22;6123;48.864;9.200;2023-06-26T12:31:17;28.70;97.00
12119;DHT22;6123;48.864;9.200;2023-06-26T12:33:45;29.40;96.20
12119;DHT22;6123;48.864;9.200;2023-06-26T12:36:14;29.00;96.60
12119;DHT22;6123;48.864;9.200;2023-06-26T12:38:40;29.60;94.80
12119;DHT22;6123;48.864;9.200;2023-06-26T12:41:12;29.50;94.70
12119;DHT22;6123;48.864;9.200;2023-06-26T12:43:39;30.00;93.60
12119;DHT22;6123;48.864;9.200;2023-06-26T12:46:05;29.80;93.40
12119;DHT22;6123;48.864;9.200;2023-06-26T12:48:41;29.40;94.50
12119;DHT22;6123;48.864;9.200;2023-06-26T12:51:16;28.60;95.80
12119;DHT22;6123;48.864;9.200;2023-06-26T12:53:42;29.20;94.40
12119;DHT22;6123;48.864;9.200;2023-06-26T12:56:09;28.90;95.00
12119;DHT22;6123;48.864;9.200;2023-06-26T12:58:36;28.40;94.30
12119;DHT22;6123;48.864;9.200;2023-06-26T13:01:06;28.40;94.90
12119;DHT22;6123;48.864;9.200;2023-06-26T13:03:40;28.60;95.20
12119;DHT22;6123;48.864;9.200;2023-06-26T13:06:06;29.50;93.60
12119;DHT22;6123;48.864;9.200;2023-06-26T13:08:33;29.40;94.10
12119;DHT22;6123;48.864;9.200;2023-06-26T13:10:59;29.00;93.30
12119;DHT22;6123;48.864;9.200;2023-06-26T13:13:24;29.00;93.60
12119;DHT22;6123;48.864;9.200;2023-06-26T13:15:50;29.30;92.30
12119;DHT22;6123;48.864;9.200;2023-06-26T13:19:17;29.00;91.30
12119;DHT22;6123;48.864;9.200;2023-06-26T13:21:43;29.00;91.80
12119;DHT22;6123;48.864;9.200;2023-06-26T13:24:08;28.80;92.10
12119;DHT22;6123;48.864;9.200;2023-06-26T13:26:34;29.30;92.30
12119;DHT22;6123;48.864;9.200;2023-06-26T13:29:01;29.40;90.80
12119;DHT22;6123;48.864;9.200;2023-06-26T13:31:27;28.90;90.90
12119;DHT22;6123;48.864;9.200;2023-06-26T13:33:52;28.90;91.00
12119;DHT22;6123;48.864;9.200;2023-06-26T13:36:19;29.00;89.10
12119;DHT22;6123;48.864;9.200;2023-06-26T13:39:24;28.60;88.20
12119;DHT22;6123;48.864;9.200;2023-06-26T13:41:49;28.80;86.80
12119;DHT22;6123;48.864;9.200;2023-06-26T13:44:15;29.10;85.00
12119;DHT22;6123;48.864;9.200;2023-06-26T13:46:40;29.00;83.80
